createdAt,value
2022-08-08T00:00:56.638Z,10.00
2022-08-08T00:04:16.256Z,7.17
2022-08-08T00:07:56.143Z,7.07
2022-08-08T00:10:53.063Z,7.97
2022-08-08T00:14:57.081Z,6.90
2022-08-08T00:18:02.605Z,7.17
2022-08-08T00:20:56.522Z,7.67
2022-08-08T00:24:02.045Z,11.23
2022-08-08T00:26:55.181Z,7.33
2022-08-08T00:29:52.448Z,8.50
2022-08-08T00:33:12.946Z,9.50
2022-08-08T00:36:08.870Z,8.67
2022-08-08T00:41:07.833Z,8.83
2022-08-08T00:43:11.811Z,10.07
2022-08-08T00:46:24.353Z,8.33
2022-08-08T00:49:32.258Z,7.93
2022-08-08T00:52:54.353Z,8.87
2022-08-08T00:55:56.510Z,9.83
2022-08-08T00:59:07.293Z,7.53
2022-08-08T01:03:57.572Z,8.93
2022-08-08T01:06:00.903Z,10.53
2022-08-08T01:09:36.179Z,8.57
2022-08-08T01:12:47.527Z,7.90
2022-08-08T01:15:47.181Z,9.10
2022-08-08T01:19:42.025Z,8.40
2022-08-08T01:22:55.835Z,8.93
2022-08-08T01:25:48.899Z,7.37
2022-08-08T01:29:11.614Z,7.47
2022-08-08T01:32:23.025Z,8.63
2022-08-08T01:35:38.587Z,10.93
2022-08-08T01:38:42.471Z,9.83
2022-08-08T01:41:46.382Z,8.57
2022-08-08T01:44:59.288Z,8.43
2022-08-08T01:48:31.075Z,8.80
2022-08-08T01:52:43.415Z,9.47
2022-08-08T01:56:28.771Z,8.67
2022-08-08T01:58:58.679Z,8.93
2022-08-08T02:02:34.043Z,8.67
2022-08-08T02:05:23.229Z,10.20
2022-08-08T02:08:37.819Z,9.20
2022-08-08T02:11:59.141Z,9.23
2022-08-08T02:14:58.800Z,8.80
2022-08-08T02:18:10.388Z,10.10
2022-08-08T02:21:20.164Z,9.97
2022-08-08T02:24:28.785Z,10.83
2022-08-08T02:27:21.473Z,11.60
2022-08-08T02:30:21.660Z,10.13
2022-08-08T02:34:00.394Z,15.07
2022-08-08T02:37:01.854Z,11.90
2022-08-08T02:40:00.210Z,10.60
2022-08-08T02:44:39.077Z,9.97
2022-08-08T02:47:17.195Z,10.37
2022-08-08T02:50:25.353Z,9.43
2022-08-08T02:53:45.480Z,9.67
2022-08-08T02:57:17.407Z,13.03
2022-08-08T03:00:33.673Z,11.03
2022-08-08T03:05:00.590Z,10.57
2022-08-08T03:07:08.669Z,12.10
2022-08-08T03:10:33.009Z,12.67
2022-08-08T03:15:58.223Z,11.33
2022-08-08T03:17:11.945Z,11.77
2022-08-08T03:20:07.978Z,15.37
2022-08-08T03:22:57.837Z,13.47
2022-08-08T03:25:50.189Z,12.90
2022-08-08T03:28:51.274Z,12.17
2022-08-08T03:32:05.888Z,13.53
2022-08-08T03:34:54.168Z,13.50
2022-08-08T03:38:53.206Z,12.73
2022-08-08T03:40:53.616Z,18.63
2022-08-08T03:43:41.707Z,12.07
2022-08-08T03:46:32.397Z,13.70
2022-08-08T03:49:58.607Z,11.27
2022-08-08T03:52:33.744Z,12.27
2022-08-08T03:55:57.355Z,12.93
2022-08-08T03:58:37.507Z,11.23
2022-08-08T04:02:13.200Z,13.20
2022-08-08T04:04:42.963Z,13.97
2022-08-08T04:07:40.397Z,14.33
2022-08-08T04:10:32.345Z,15.23
2022-08-08T04:13:23.146Z,14.43
2022-08-08T04:16:10.491Z,14.60
2022-08-08T04:18:58.711Z,13.03
2022-08-08T04:21:45.927Z,12.23
2022-08-08T04:24:32.976Z,13.10
2022-08-08T04:28:01.361Z,13.63
2022-08-08T04:30:27.687Z,13.77
2022-08-08T04:33:15.622Z,15.50
2022-08-08T04:36:02.960Z,13.90
2022-08-08T04:39:13.445Z,13.33
2022-08-08T04:41:58.882Z,15.00
2022-08-08T04:44:47.565Z,15.40
2022-08-08T04:47:36.757Z,14.47
2022-08-08T04:50:37.872Z,15.17
2022-08-08T04:54:27.444Z,13.93
2022-08-08T04:56:32.773Z,14.93
2022-08-08T04:59:24.262Z,13.13
2022-08-08T05:02:22.494Z,15.70
2022-08-08T05:05:20.331Z,14.67
2022-08-08T05:08:28.718Z,14.67
2022-08-08T05:11:23.192Z,17.97
2022-08-08T05:14:12.900Z,13.60
2022-08-08T05:17:02.111Z,14.93
2022-08-08T05:20:12.536Z,21.43
2022-08-08T05:23:02.036Z,30.70
2022-08-08T05:25:49.659Z,18.50
2022-08-08T05:28:55.991Z,18.33
2022-08-08T05:32:03.277Z,20.63
2022-08-08T05:34:53.426Z,22.47
2022-08-08T05:38:00.238Z,23.37
2022-08-08T05:40:54.431Z,23.17
2022-08-08T05:44:03.534Z,25.23
2022-08-08T05:46:53.759Z,16.53
2022-08-08T05:49:53.979Z,17.83
2022-08-08T05:52:42.407Z,16.90
2022-08-08T05:56:10.082Z,18.50
2022-08-08T05:58:57.513Z,16.23
2022-08-08T06:01:58.043Z,13.43
2022-08-08T06:04:55.137Z,15.43
2022-08-08T06:07:43.999Z,15.40
2022-08-08T06:10:34.731Z,18.33
2022-08-08T06:13:23.471Z,16.33
2022-08-08T06:16:16.310Z,16.13
2022-08-08T06:19:07.331Z,18.63
2022-08-08T06:21:57.247Z,15.00
2022-08-08T06:24:47.178Z,13.23
2022-08-08T06:27:48.359Z,13.53
2022-08-08T06:30:39.146Z,13.17
2022-08-08T06:34:27.011Z,16.97
2022-08-08T06:36:53.123Z,16.77
2022-08-08T06:39:55.860Z,13.93
2022-08-08T06:43:01.151Z,12.17
2022-08-08T06:45:48.767Z,12.40
2022-08-08T06:48:38.246Z,12.80
2022-08-08T06:51:46.639Z,14.37
2022-08-08T06:54:32.928Z,13.00
2022-08-08T06:57:20.403Z,12.63
2022-08-08T07:00:11.423Z,15.07
2022-08-08T07:03:04.761Z,12.10
2022-08-08T07:06:02.247Z,11.77
2022-08-08T07:08:57.173Z,12.93
2022-08-08T07:11:51.004Z,9.27
2022-08-08T07:15:04.324Z,10.47
2022-08-08T07:18:01.730Z,10.57
2022-08-08T07:21:05.142Z,10.97
2022-08-08T07:23:57.509Z,12.80
2022-08-08T07:26:53.868Z,11.23
2022-08-08T07:29:59.677Z,10.83
2022-08-08T07:32:49.809Z,13.70
2022-08-08T07:35:38.001Z,8.93
2022-08-08T07:38:25.922Z,10.53
2022-08-08T07:41:24.927Z,8.80
2022-08-08T07:44:37.550Z,9.17
2022-08-08T07:47:20.955Z,7.90
2022-08-08T07:50:26.076Z,8.07
2022-08-08T07:54:01.404Z,6.90
2022-08-08T07:57:08.847Z,8.37
2022-08-08T08:00:13.325Z,9.40
2022-08-08T08:03:20.686Z,6.97
2022-08-08T08:06:12.469Z,6.50
2022-08-08T08:09:08.394Z,7.13
2022-08-08T08:11:56.592Z,6.90
2022-08-08T08:14:50.023Z,4.63
2022-08-08T08:17:48.515Z,5.03
2022-08-08T08:20:36.592Z,6.37
2022-08-08T08:23:27.606Z,4.50
2022-08-08T08:26:28.590Z,5.23
2022-08-08T08:29:16.708Z,6.70
2022-08-08T08:32:08.893Z,4.20
2022-08-08T08:34:56.255Z,5.97
2022-08-08T08:38:13.307Z,6.10
2022-08-08T08:40:51.369Z,4.23
2022-08-08T08:43:42.394Z,4.30
2022-08-08T08:46:32.554Z,4.80
2022-08-08T08:49:22.158Z,5.10
2022-08-08T08:52:17.938Z,5.30
2022-08-08T08:55:13.150Z,3.63
2022-08-08T08:58:07.312Z,6.10
2022-08-08T09:01:09.118Z,10.00
2022-08-08T09:04:02.244Z,5.47
2022-08-08T09:06:51.535Z,4.87
2022-08-08T09:09:48.202Z,4.40
2022-08-08T09:12:46.903Z,7.00
2022-08-08T09:15:37.515Z,4.17
2022-08-08T09:18:30.923Z,5.20
2022-08-08T09:22:02.279Z,6.40
2022-08-08T09:24:28.370Z,4.23
2022-08-08T09:27:20.412Z,6.67
2022-08-08T09:30:10.882Z,8.10
2022-08-08T09:33:54.505Z,4.90
2022-08-08T09:36:28.341Z,4.97
2022-08-08T09:39:21.854Z,5.40
2022-08-08T09:42:21.830Z,4.57
2022-08-08T09:45:20.527Z,4.30
2022-08-08T09:48:35.127Z,7.75
2022-08-08T09:51:30.327Z,4.47
2022-08-08T09:54:45.941Z,3.93
2022-08-08T09:57:45.751Z,4.37
2022-08-08T10:00:53.155Z,5.37
2022-08-08T10:03:56.024Z,3.83
2022-08-08T10:06:45.162Z,4.28
2022-08-08T10:09:35.797Z,4.18
2022-08-08T10:12:53.035Z,4.97
2022-08-08T10:16:01.092Z,5.15
2022-08-08T10:18:49.443Z,6.55
2022-08-08T10:21:50.268Z,5.50
2022-08-08T10:24:46.873Z,4.45
2022-08-08T10:27:45.362Z,4.65
2022-08-08T10:31:00.135Z,3.30
2022-08-08T10:34:18.680Z,5.28
2022-08-08T10:36:53.286Z,4.97
2022-08-08T10:39:54.785Z,4.47
2022-08-08T10:42:43.673Z,5.38
2022-08-08T10:45:57.295Z,4.90
2022-08-08T10:48:55.981Z,4.80
2022-08-08T10:51:51.306Z,4.28
2022-08-08T10:54:41.510Z,3.33
2022-08-08T10:57:36.890Z,4.68
2022-08-08T11:00:54.318Z,5.15
2022-08-08T11:04:00.637Z,7.20
2022-08-08T11:06:59.490Z,4.53
2022-08-08T11:09:47.148Z,4.53
2022-08-08T11:12:44.374Z,4.72
2022-08-08T11:15:35.106Z,4.38
2022-08-08T11:18:40.528Z,4.43
2022-08-08T11:21:35.127Z,4.00
2022-08-08T11:24:25.709Z,3.28
2022-08-08T11:27:19.585Z,4.72
2022-08-08T11:30:24.075Z,3.58
2022-08-08T11:33:12.947Z,3.22
2022-08-08T11:36:01.248Z,2.88
2022-08-08T11:38:55.297Z,3.58
2022-08-08T11:41:45.151Z,4.40
2022-08-08T11:44:33.397Z,3.65
2022-08-08T11:47:22.270Z,4.82
2022-08-08T11:50:26.885Z,2.85
2022-08-08T11:53:16.972Z,4.45
2022-08-08T11:56:22.518Z,4.05
2022-08-08T11:59:11.189Z,6.80
2022-08-08T12:02:30.862Z,3.08
2022-08-08T12:05:13.922Z,4.05
2022-08-08T12:08:01.110Z,2.63
2022-08-08T12:10:51.381Z,5.68
2022-08-08T12:14:02.685Z,4.97
2022-08-08T12:16:52.286Z,6.03
2022-08-08T12:19:51.519Z,3.85
2022-08-08T12:22:49.718Z,4.07
2022-08-08T12:25:44.715Z,4.82
2022-08-08T12:28:39.782Z,4.95
2022-08-08T12:31:39.012Z,3.00
2022-08-08T12:34:44.893Z,5.38
2022-08-08T12:37:40.818Z,3.28
2022-08-08T12:40:57.251Z,3.17
2022-08-08T12:44:00.482Z,3.03
2022-08-08T12:47:00.274Z,3.15
2022-08-08T12:49:58.214Z,3.70
2022-08-08T12:52:54.187Z,3.83
2022-08-08T12:56:19.092Z,3.00
2022-08-08T12:59:18.581Z,3.90
2022-08-08T13:02:29.093Z,7.30
2022-08-08T13:05:26.652Z,3.67
2022-08-08T13:08:53.029Z,4.85
2022-08-08T13:12:18.094Z,4.47
2022-08-08T13:14:52.797Z,4.03
2022-08-08T13:17:54.257Z,3.72
2022-08-08T13:20:49.172Z,3.03
2022-08-08T13:23:41.650Z,4.30
2022-08-08T13:26:34.309Z,4.07
2022-08-08T13:29:21.307Z,3.13
2022-08-08T13:32:10.807Z,3.13
2022-08-08T13:34:59.264Z,8.13
2022-08-08T13:38:04.893Z,3.55
2022-08-08T13:40:54.313Z,5.05
2022-08-08T13:43:44.758Z,6.70
2022-08-08T13:46:33.973Z,4.55
2022-08-08T13:50:38.335Z,4.10
2022-08-08T13:52:37.816Z,3.42
2022-08-08T13:55:29.236Z,4.18
2022-08-08T13:58:23.531Z,3.97
2022-08-08T14:01:17.862Z,3.90
2022-08-08T14:04:04.900Z,3.88
2022-08-08T14:07:03.055Z,4.47
2022-08-08T14:10:05.547Z,6.05
2022-08-08T14:12:57.282Z,3.85
2022-08-08T14:15:50.284Z,5.38
2022-08-08T14:18:51.893Z,3.40
2022-08-08T14:21:49.159Z,3.72
2022-08-08T14:24:43.957Z,4.07
2022-08-08T14:27:36.016Z,5.47
2022-08-08T14:30:34.591Z,4.03
2022-08-08T14:33:36.333Z,3.97
2022-08-08T14:36:35.546Z,5.35
2022-08-08T14:39:25.022Z,4.60
2022-08-08T14:42:34.438Z,3.83
2022-08-08T14:45:29.003Z,4.20
2022-08-08T14:48:56.976Z,3.78
2022-08-08T14:51:52.229Z,4.85
2022-08-08T14:54:48.875Z,4.82
2022-08-08T14:58:03.049Z,6.72
2022-08-08T15:00:43.472Z,4.72
2022-08-08T15:03:35.220Z,5.00
2022-08-08T15:06:25.854Z,4.43
2022-08-08T15:09:12.858Z,5.30
2022-08-08T15:11:59.908Z,3.35
2022-08-08T15:14:46.947Z,6.15
2022-08-08T15:17:36.576Z,5.55
2022-08-08T15:20:23.749Z,3.72
2022-08-08T15:23:12.261Z,6.68
2022-08-08T15:26:03.467Z,7.05
2022-08-08T15:28:51.010Z,3.50
2022-08-08T15:32:02.935Z,4.80
2022-08-08T15:34:47.422Z,3.30
2022-08-08T15:37:34.761Z,3.35
2022-08-08T15:40:21.747Z,4.88
2022-08-08T15:43:18.633Z,5.50
2022-08-08T15:46:27.317Z,4.38
2022-08-08T15:49:23.079Z,2.70
2022-08-08T15:52:14.431Z,3.33
2022-08-08T15:55:02.098Z,4.63
2022-08-08T15:57:50.946Z,3.47
2022-08-08T16:00:37.950Z,3.90
2022-08-08T16:03:34.398Z,3.65
2022-08-08T16:06:28.505Z,3.63
2022-08-08T16:13:08.883Z,3.63
2022-08-08T16:13:20.624Z,4.75
2022-08-08T16:15:58.810Z,2.90
2022-08-08T16:18:56.478Z,3.63
2022-08-08T16:21:49.096Z,3.85
2022-08-08T16:24:40.974Z,4.32
2022-08-08T16:27:28.600Z,4.03
2022-08-08T16:30:32.412Z,3.47
2022-08-08T16:33:35.997Z,3.58
2022-08-08T16:36:33.884Z,4.40
2022-08-08T16:39:59.478Z,4.38
2022-08-08T16:42:28.364Z,3.10
2022-08-08T16:46:39.117Z,3.90
2022-08-08T16:48:22.551Z,3.13
2022-08-08T16:51:10.738Z,5.78
2022-08-08T16:55:22.472Z,2.92
2022-08-08T16:57:23.534Z,2.55
2022-08-08T17:00:26.647Z,4.43
2022-08-08T17:03:14.463Z,3.65
2022-08-08T17:06:01.826Z,2.92
2022-08-08T17:08:50.463Z,4.28
2022-08-08T17:11:38.918Z,2.75
2022-08-08T17:14:36.464Z,3.63
2022-08-08T17:18:01.403Z,3.30
2022-08-08T17:20:33.138Z,2.80
2022-08-08T17:24:01.804Z,3.72
2022-08-08T17:26:34.510Z,3.67
2022-08-08T17:29:24.741Z,3.25
2022-08-08T17:32:12.403Z,2.97
2022-08-08T17:35:54.312Z,2.47
2022-08-08T17:38:06.685Z,2.95
2022-08-08T17:40:54.496Z,3.08
2022-08-08T17:44:01.100Z,2.58
2022-08-08T17:46:54.586Z,2.92
2022-08-08T17:49:42.859Z,4.27
2022-08-08T17:52:34.432Z,2.17
2022-08-08T17:56:03.343Z,3.20
2022-08-08T17:58:29.673Z,2.75
2022-08-08T18:01:43.909Z,4.00
2022-08-08T18:04:29.046Z,3.03
2022-08-08T18:08:03.052Z,2.67
2022-08-08T18:10:31.274Z,3.77
2022-08-08T18:13:18.897Z,2.80
2022-08-08T18:16:06.503Z,3.63
2022-08-08T18:18:56.509Z,6.03
2022-08-08T18:22:01.677Z,3.30
2022-08-08T18:24:49.303Z,2.93
2022-08-08T18:27:38.260Z,3.20
2022-08-08T18:30:25.342Z,3.20
2022-08-08T18:33:36.562Z,4.50
2022-08-08T18:36:23.399Z,3.77
2022-08-08T18:39:16.527Z,4.60
2022-08-08T18:42:16.388Z,5.90
2022-08-08T18:45:09.137Z,2.90
2022-08-08T18:48:18.179Z,4.37
2022-08-08T18:51:21.701Z,3.27
2022-08-08T18:54:22.679Z,4.67
2022-08-08T18:57:15.061Z,4.60
2022-08-08T19:00:03.031Z,3.33
2022-08-08T19:02:55.746Z,4.83
2022-08-08T19:05:48.634Z,3.20
2022-08-08T19:08:38.608Z,5.53
2022-08-08T19:11:27.180Z,5.60
2022-08-08T19:14:20.364Z,4.47
2022-08-08T19:17:07.765Z,3.47
2022-08-08T19:20:02.083Z,3.53
2022-08-08T19:22:50.045Z,3.10
2022-08-08T19:26:19.460Z,3.20
2022-08-08T19:28:45.186Z,8.20
2022-08-08T19:31:35.489Z,4.37
2022-08-08T19:34:36.085Z,4.03
2022-08-08T19:37:42.574Z,3.27
2022-08-08T19:40:32.842Z,3.43
2022-08-08T19:43:19.915Z,3.07
2022-08-08T19:46:10.138Z,6.40
2022-08-08T19:49:03.189Z,4.20
2022-08-08T19:51:50.349Z,2.87
2022-08-08T19:54:39.854Z,3.50
2022-08-08T19:57:28.784Z,2.83
2022-08-08T20:00:29.066Z,4.97
2022-08-08T20:04:02.062Z,3.53
2022-08-08T20:06:24.919Z,3.83
2022-08-08T20:09:12.721Z,3.27
2022-08-08T20:12:05.446Z,2.10
2022-08-08T20:14:56.018Z,3.00
2022-08-08T20:17:47.010Z,3.83
2022-08-08T20:20:35.979Z,3.73
2022-08-08T20:23:30.229Z,3.80
2022-08-08T20:26:17.547Z,2.83
2022-08-08T20:29:11.098Z,5.23
2022-08-08T20:32:10.737Z,7.27
2022-08-08T20:35:02.401Z,2.97
2022-08-08T20:37:54.686Z,4.77
2022-08-08T20:40:42.065Z,2.13
2022-08-08T20:43:43.491Z,5.27
2022-08-08T20:46:35.536Z,3.10
2022-08-08T20:49:32.365Z,5.47
2022-08-08T20:52:28.939Z,3.97
2022-08-08T20:55:22.418Z,2.13
2022-08-08T20:58:13.719Z,3.67
2022-08-08T21:01:01.067Z,3.67
2022-08-08T21:03:59.797Z,2.83
2022-08-08T21:06:52.981Z,5.33
2022-08-08T21:10:01.462Z,3.10
2022-08-08T21:12:51.162Z,3.23
2022-08-08T21:16:04.745Z,3.33
2022-08-08T21:18:48.487Z,2.50
2022-08-08T21:21:39.564Z,2.53
2022-08-08T21:24:30.622Z,3.30
2022-08-08T21:28:06.687Z,4.07
2022-08-08T21:30:24.797Z,2.97
2022-08-08T21:33:11.885Z,4.07
2022-08-08T21:36:17.188Z,3.37
2022-08-08T21:39:06.583Z,2.80
2022-08-08T21:41:59.118Z,3.83
2022-08-08T21:44:58.996Z,3.87
2022-08-08T21:48:19.689Z,5.53
2022-08-08T21:50:55.419Z,3.43
2022-08-08T21:54:33.383Z,2.03
2022-08-08T21:56:52.104Z,1.97
2022-08-08T22:00:01.460Z,2.47
2022-08-08T22:02:47.478Z,2.17
2022-08-08T22:05:37.695Z,4.40
2022-08-08T22:08:37.086Z,4.00
2022-08-08T22:12:02.396Z,4.83
2022-08-08T22:14:36.814Z,3.07
2022-08-08T22:17:24.015Z,2.93
2022-08-08T22:20:23.841Z,2.57
2022-08-08T22:23:15.242Z,3.80
2022-08-08T22:26:26.603Z,3.87
2022-08-08T22:29:57.201Z,2.53
2022-08-08T22:32:18.066Z,3.23
2022-08-08T22:35:06.397Z,4.53
2022-08-08T22:37:55.306Z,3.87
2022-08-08T22:40:43.010Z,2.83
2022-08-08T22:43:32.204Z,3.57
2022-08-08T22:46:26.672Z,3.03
2022-08-08T22:49:19.863Z,3.97
2022-08-08T22:52:07.162Z,4.03
2022-08-08T22:55:04.444Z,4.97
2022-08-08T22:57:52.212Z,3.43
2022-08-08T23:00:41.808Z,2.53
2022-08-08T23:03:54.701Z,3.47
2022-08-08T23:06:42.705Z,3.77
2022-08-08T23:09:39.077Z,2.43
2022-08-08T23:12:40.380Z,5.53
2022-08-08T23:16:41.764Z,3.33
2022-08-08T23:18:35.484Z,3.73
2022-08-08T23:21:22.696Z,5.43
2022-08-08T23:24:09.685Z,3.27
2022-08-08T23:26:56.690Z,4.50
2022-08-08T23:29:55.097Z,5.67
2022-08-08T23:32:44.126Z,3.37
2022-08-08T23:35:34.473Z,3.17
2022-08-08T23:38:41.902Z,3.90
2022-08-08T23:41:31.745Z,3.00
2022-08-08T23:44:38.569Z,4.20
2022-08-08T23:49:04.181Z,6.33
2022-08-08T23:50:34.057Z,4.20
2022-08-08T23:54:05.730Z,3.50
2022-08-08T23:56:32.505Z,4.50
2022-08-08T23:59:21.031Z,5.13
